Time;durP1;ratioP1;P1;durP2;ratioP2;P2;SDS_P1;SDS_P2;PMS_P1;PMS_P2;Temp;Humidity;BMP_temperature;BMP_pressure;BME280_temperature;BME280_humidity;BME280_pressure;Samples;Min_cycle;Max_cycle;Signal;HPM_P1;HPM_P2
2022/10/21 00:01:58;;;;;;;;;;;;;;;18.64;62.49;100879.54;2350170;75;50741;-78
2022/10/21 00:05:00;;;;;;;;;;;;;;;18.64;62.55;100866.14;2333331;75;51753;-77
2022/10/21 00:08:01;;;;;;;;;;;;;;;18.63;62.46;100850.26;2288076;77;51010;-76
2022/10/21 00:11:04;;;;;;;;;;;;;;;18.62;62.63;100849.91;2288185;77;50393;-76
2022/10/21 00:14:05;;;;;;;;;;;;;;;18.61;62.65;100842.38;2309756;77;51558;-77
2022/10/21 00:17:07;;;;;;;;;;;;;;;18.60;62.66;100840.73;2288152;77;53105;-77
2022/10/21 00:20:09;;;;;;;;;;;;;;;18.63;62.64;100846.23;2288457;77;51087;-78
2022/10/21 00:23:11;;;;;;;;;;;;;;;18.62;62.65;100849.91;2283062;77;51532;-78
2022/10/21 00:26:12;;;;;;;;;;;;;;;18.62;62.62;100841.36;2276649;77;50103;-77
2022/10/21 00:29:14;;;;;;;;;;;;;;;18.62;62.61;100831.98;2311189;75;51519;-76
2022/10/21 00:32:16;;;;;;;;;;;;;;;18.63;62.62;100847.58;2276646;77;49594;-77
2022/10/21 00:35:17;;;;;;;;;;;;;;;18.63;62.62;100852.94;2328869;75;50363;-77
2022/10/21 00:38:19;;;;;;;;;;;;;;;18.62;62.60;100872.69;2310059;77;50411;-77
2022/10/21 00:41:20;;;;;;;;;;;;;;;18.64;62.59;100877.37;2309967;77;50641;-77
2022/10/21 00:44:22;;;;;;;;;;;;;;;18.62;62.53;100884.75;2310048;76;51513;-77
2022/10/21 00:47:23;;;;;;;;;;;;;;;18.58;62.60;100874.08;2288437;77;50959;-76
2022/10/21 00:50:30;;;;;;;;;;;;;;;18.58;62.59;100878.09;2310106;77;51514;-77
2022/10/21 00:53:32;;;;;;;;;;;;;;;18.61;62.62;100862.48;2310133;76;50857;-76
2022/10/21 00:56:34;;;;;;;;;;;;;;;18.62;62.53;100860.12;2338023;75;51558;-77
2022/10/21 00:59:36;;;;;;;;;;;;;;;18.65;62.45;100870.98;2315696;75;50992;-78
2022/10/21 01:02:38;;;;;;;;;;;;;;;18.63;62.48;100864.48;2350815;75;50443;-78
2022/10/21 01:05:39;;;;;;;;;;;;;;;18.62;62.50;100863.31;2327169;75;50547;-78
2022/10/21 01:08:41;;;;;;;;;;;;;;;18.62;62.46;100861.97;2312243;77;50644;-76
2022/10/21 01:11:43;;;;;;;;;;;;;;;18.62;62.48;100848.57;2287891;75;51853;-78
2022/10/21 01:14:53;;;;;;;;;;;;;;;18.61;62.49;100836.19;2350037;75;50439;-77
2022/10/21 01:17:56;;;;;;;;;;;;;;;18.59;62.53;100836.87;2336885;75;50699;-77
2022/10/21 01:20:59;;;;;;;;;;;;;;;18.58;62.18;100836.55;2310328;77;50802;-77
2022/10/21 01:24:19;;;;;;;;;;;;;;;18.57;62.45;100837.55;2302790;75;51040;-77
2022/10/21 01:27:28;;;;;;;;;;;;;;;18.57;62.41;100824.98;2310500;77;51588;-77
2022/10/21 01:30:32;;;;;;;;;;;;;;;18.56;62.36;100823.33;2310423;77;52415;-77
2022/10/21 01:33:41;;;;;;;;;;;;;;;18.58;62.31;100817.80;2310284;76;51593;-78
2022/10/21 01:36:47;;;;;;;;;;;;;;;18.57;62.37;100808.90;2287788;77;49720;-77
2022/10/21 01:39:55;;;;;;;;;;;;;;;18.58;62.32;100799.04;2310514;77;50534;-78
2022/10/21 01:42:57;;;;;;;;;;;;;;;18.56;62.24;100793.84;2310294;77;50379;-78
2022/10/21 01:46:03;;;;;;;;;;;;;;;18.58;62.24;100793.17;2310450;77;50777;-78
2022/10/21 01:49:09;;;;;;;;;;;;;;;18.56;62.28;100784.98;2288644;77;51999;-78
2022/10/21 01:52:11;;;;;;;;;;;;;;;18.57;62.28;100786.63;2315696;75;50870;-77
2022/10/21 01:55:14;;;;;;;;;;;;;;;18.53;62.12;100784.83;2330769;75;50839;-77
2022/10/21 01:58:16;;;;;;;;;;;;;;;18.56;62.24;100780.96;2358478;75;50815;-78
2022/10/21 02:01:17;;;;;;;;;;;;;;;18.59;62.29;100773.89;2325707;75;51373;-78
2022/10/21 02:04:19;;;;;;;;;;;;;;;18.59;62.28;100763.17;2358322;75;50431;-78
2022/10/21 02:07:21;;;;;;;;;;;;;;;18.60;62.23;100760.81;2358385;75;50191;-78
2022/10/21 02:10:22;;;;;;;;;;;;;;;18.59;62.33;100757.81;2358441;75;50754;-77
2022/10/21 02:13:28;;;;;;;;;;;;;;;18.59;62.25;100748.44;2325585;75;51234;-77
2022/10/21 02:16:31;;;;;;;;;;;;;;;18.61;62.24;100754.45;2357212;75;52002;-78
2022/10/21 02:19:33;;;;;;;;;;;;;;;18.56;62.22;100746.13;2323364;75;50786;-78
2022/10/21 02:22:34;;;;;;;;;;;;;;;18.54;62.34;100743.61;2315195;75;51535;-77
2022/10/21 02:25:36;;;;;;;;;;;;;;;18.57;62.18;100729.02;2313535;75;52333;-78
2022/10/21 02:28:37;;;;;;;;;;;;;;;18.55;62.23;100718.98;2350031;75;50646;-78
2022/10/21 02:31:41;;;;;;;;;;;;;;;18.57;62.29;100719.64;2350265;75;51559;-78
2022/10/21 02:34:47;;;;;;;;;;;;;;;18.57;62.35;100706.24;2350000;75;51602;-78
2022/10/21 02:38:02;;;;;;;;;;;;;;;18.57;62.26;100707.58;2314725;75;51058;-78
2022/10/21 02:41:05;;;;;;;;;;;;;;;18.57;62.07;100711.60;2350174;75;51625;-77
2022/10/21 02:44:06;;;;;;;;;;;;;;;18.55;62.18;100721.66;2349960;75;50845;-77
2022/10/21 02:47:08;;;;;;;;;;;;;;;18.53;62.23;100735.77;2347000;75;50635;-77
2022/10/21 02:50:09;;;;;;;;;;;;;;;18.51;62.13;100718.52;2310706;75;51818;-78
2022/10/21 02:53:11;;;;;;;;;;;;;;;18.52;62.31;100717.50;2328494;76;50735;-77
2022/10/21 02:56:12;;;;;;;;;;;;;;;18.50;62.28;100706.98;2377209;74;51592;-78
2022/10/21 02:59:14;;;;;;;;;;;;;;;18.49;62.31;100697.25;2294815;76;50780;-78
2022/10/21 03:02:16;;;;;;;;;;;;;;;18.50;62.26;100693.58;2325465;75;52616;-77
2022/10/21 03:05:17;;;;;;;;;;;;;;;18.52;62.16;100678.64;2338144;75;51541;-78
2022/10/21 03:08:19;;;;;;;;;;;;;;;18.52;62.16;100671.95;2322728;76;50419;-77
2022/10/21 03:11:20;;;;;;;;;;;;;;;18.54;62.23;100675.28;2322696;76;50520;-78
2022/10/21 03:14:22;;;;;;;;;;;;;;;18.52;62.09;100671.12;2266906;77;49609;-78
2022/10/21 03:17:23;;;;;;;;;;;;;;;18.55;62.13;100668.92;2307169;76;50832;-78
2022/10/21 03:20:25;;;;;;;;;;;;;;;18.53;62.00;100675.48;2267795;77;51529;-78
2022/10/21 03:23:27;;;;;;;;;;;;;;;18.52;62.19;100675.14;2321474;75;51500;-77
2022/10/21 03:26:28;;;;;;;;;;;;;;;18.50;62.14;100676.16;2267723;76;52562;-78
2022/10/21 03:29:30;;;;;;;;;;;;;;;18.50;62.25;100686.05;2326733;76;51584;-77
2022/10/21 03:32:31;;;;;;;;;;;;;;;18.50;62.27;100694.92;2343410;75;50406;-77
2022/10/21 03:35:33;;;;;;;;;;;;;;;18.52;62.26;100681.32;2323712;75;49907;-78
2022/10/21 03:38:34;;;;;;;;;;;;;;;18.53;62.09;100683.01;2323760;75;51840;-78
2022/10/21 03:41:36;;;;;;;;;;;;;;;18.55;62.02;100674.77;2356474;75;51456;-78
2022/10/21 03:44:38;;;;;;;;;;;;;;;18.54;61.80;100667.24;2356133;74;51495;-77
2022/10/21 03:47:39;;;;;;;;;;;;;;;18.56;61.83;100677.79;2356011;74;51524;-77
2022/10/21 03:50:41;;;;;;;;;;;;;;;18.52;61.93;100677.81;2323636;75;50942;-77
2022/10/21 03:53:42;;;;;;;;;;;;;;;18.53;61.59;100683.52;2323529;75;50360;-77
2022/10/21 03:56:44;;;;;;;;;;;;;;;18.55;61.76;100692.19;2356227;74;50370;-77
2022/10/21 03:59:45;;;;;;;;;;;;;;;18.54;61.93;100691.88;2321577;75;50362;-77
2022/10/21 04:02:47;;;;;;;;;;;;;;;18.52;61.77;100693.38;2261126;76;50100;-78
2022/10/21 04:05:49;;;;;;;;;;;;;;;18.53;61.73;100692.90;2294186;76;51450;-77
2022/10/21 04:08:50;;;;;;;;;;;;;;;18.52;61.82;100684.00;2304464;75;50703;-76
2022/10/21 04:11:52;;;;;;;;;;;;;;;18.53;61.78;100675.48;2289812;77;51514;-77
2022/10/21 04:14:53;;;;;;;;;;;;;;;18.54;61.94;100669.92;2269055;76;52770;-77
2022/10/21 04:17:55;;;;;;;;;;;;;;;18.54;61.65;100664.56;2289219;77;50404;-77
2022/10/21 04:20:56;;;;;;;;;;;;;;;18.54;61.71;100653.02;2317679;76;50420;-77
2022/10/21 04:23:58;;;;;;;;;;;;;;;18.51;61.74;100638.14;2317570;75;50364;-76
2022/10/21 04:27:00;;;;;;;;;;;;;;;18.53;61.71;100636.12;2284037;76;51779;-76
2022/10/21 04:30:01;;;;;;;;;;;;;;;18.52;61.70;100626.39;2326644;75;51429;-76
2022/10/21 04:33:03;;;;;;;;;;;;;;;18.53;61.86;100612.52;2350631;75;51536;-76
2022/10/21 04:36:04;;;;;;;;;;;;;;;18.55;61.98;100611.80;2376923;75;51446;-76
2022/10/21 04:39:06;;;;;;;;;;;;;;;18.55;62.17;100610.45;2343970;75;50085;-76
2022/10/21 04:42:08;;;;;;;;;;;;;;;18.55;62.11;100598.40;2376996;75;51499;-77
2022/10/21 04:45:09;;;;;;;;;;;;;;;18.56;61.95;100605.44;2343715;75;51462;-77
2022/10/21 04:48:12;;;;;;;;;;;;;;;18.57;61.92;100601.73;2336134;75;50734;-76
2022/10/21 04:51:14;;;;;;;;;;;;;;;18.57;61.84;100599.05;2326487;75;50124;-76
2022/10/21 04:54:15;;;;;;;;;;;;;;;18.58;61.67;100592.70;2355446;75;51503;-76
2022/10/21 04:57:17;;;;;;;;;;;;;;;18.57;61.74;100586.48;2356193;75;51684;-77
2022/10/21 05:00:18;;;;;;;;;;;;;;;18.56;61.96;100584.00;2356344;75;51653;-76
2022/10/21 05:03:20;;;;;;;;;;;;;;;18.56;62.47;100584.83;2355820;75;52256;-77
2022/10/21 05:06:22;;;;;;;;;;;;;;;18.56;62.13;100580.81;2355858;75;50374;-75
2022/10/21 05:09:23;;;;;;;;;;;;;;;18.56;61.83;100570.61;2356275;75;51481;-77
2022/10/21 05:12:25;;;;;;;;;;;;;;;18.59;61.74;100560.85;2356324;75;51506;-76
2022/10/21 05:15:27;;;;;;;;;;;;;;;18.57;61.47;100550.82;2321174;75;52518;-77
2022/10/21 05:18:28;;;;;;;;;;;;;;;18.58;61.39;100544.47;2363122;75;52265;-77
2022/10/21 05:21:30;;;;;;;;;;;;;;;18.59;61.61;100546.11;2339336;75;51530;-77
2022/10/21 05:24:31;;;;;;;;;;;;;;;18.59;62.18;100552.81;2326795;76;54290;-76
2022/10/21 05:27:33;;;;;;;;;;;;;;;18.58;62.12;100546.63;2272883;76;49488;-75
2022/10/21 05:30:34;;;;;;;;;;;;;;;18.58;62.40;100548.48;2267858;78;50410;-77
2022/10/21 05:33:36;;;;;;;;;;;;;;;18.58;62.40;100548.48;2294072;77;50311;-76
2022/10/21 05:36:38;;;;;;;;;;;;;;;18.57;62.60;100542.78;2294544;77;50743;-76
2022/10/21 05:39:39;;;;;;;;;;;;;;;18.58;62.52;100546.63;2261348;77;50962;-77
2022/10/21 05:42:41;;;;;;;;;;;;;;;18.58;62.58;100544.47;2261371;77;50802;-77
2022/10/21 05:45:42;;;;;;;;;;;;;;;18.58;62.82;100534.57;2294598;76;51389;-74
2022/10/21 05:48:44;;;;;;;;;;;;;;;18.59;63.04;100540.75;2278187;76;51378;-76
2022/10/21 05:51:45;;;;;;;;;;;;;;;18.58;63.50;100528.39;2289196;76;51702;-79
2022/10/21 05:54:47;;;;;;;;;;;;;;;18.59;63.33;100540.23;2263094;77;50718;-80
2022/10/21 05:57:49;;;;;;;;;;;;;;;18.59;63.56;100534.05;2263086;77;49900;-78
2022/10/21 06:00:53;;;;;;;;;;;;;;;18.61;63.12;100528.01;2263291;77;50619;-79
2022/10/21 06:03:54;;;;;;;;;;;;;;;18.61;63.83;100528.01;2276220;76;22445;-78
2022/10/21 06:06:56;;;;;;;;;;;;;;;18.63;63.71;100522.78;2296224;76;50714;-78
2022/10/21 06:09:58;;;;;;;;;;;;;;;18.60;63.46;100527.66;2295960;77;51493;-78
2022/10/21 06:13:00;;;;;;;;;;;;;;;18.60;63.64;100524.98;2263411;77;50135;-78
2022/10/21 06:16:01;;;;;;;;;;;;;;;18.61;63.70;100529.34;2334417;76;50399;-79
2022/10/21 06:19:03;;;;;;;;;;;;;;;18.60;63.65;100515.61;2335374;76;50742;-78
2022/10/21 06:22:04;;;;;;;;;;;;;;;18.58;63.76;100528.39;2335686;76;50712;-78
2022/10/21 06:25:06;;;;;;;;;;;;;;;18.59;63.53;100532.72;2334976;76;50738;-78
2022/10/21 06:28:07;;;;;;;;;;;;;;;18.58;63.62;100537.25;2289001;76;51671;-80
2022/10/21 06:31:10;;;;;;;;;;;;;;;18.61;63.42;100534.70;2334991;76;51495;-80
2022/10/21 06:34:12;;;;;;;;;;;;;;;18.61;63.54;100536.05;2318638;76;50395;-78
2022/10/21 06:37:14;;;;;;;;;;;;;;;18.60;63.34;100535.70;2306204;76;50086;-78
2022/10/21 06:40:15;;;;;;;;;;;;;;;18.59;63.37;100544.77;2240251;77;49260;-78
2022/10/21 06:43:17;;;;;;;;;;;;;;;18.60;63.28;100539.73;2263648;77;50732;-78
2022/10/21 06:46:18;;;;;;;;;;;;;;;18.59;63.35;100551.47;2296602;77;50739;-78
2022/10/21 06:49:20;;;;;;;;;;;;;;;18.58;63.27;100548.48;2304477;76;50638;-78
2022/10/21 06:52:21;;;;;;;;;;;;;;;18.57;63.28;100549.48;2279931;76;51782;-79
2022/10/21 06:55:23;;;;;;;;;;;;;;;18.56;63.54;100547.83;2296142;75;51549;-79
2022/10/21 06:58:25;;;;;;;;;;;;;;;18.56;63.35;100539.79;2329880;76;50286;-79
2022/10/21 07:01:27;;;;;;;;;;;;;;;18.56;63.32;100535.77;2328468;76;50264;-79
2022/10/21 07:04:29;;;;;;;;;;;;;;;18.57;63.31;100540.10;2296244;76;51870;-78
2022/10/21 07:07:31;;;;;;;;;;;;;;;18.57;63.21;100546.80;2298683;76;51503;-79
2022/10/21 07:10:32;;;;;;;;;;;;;;;18.57;63.27;100540.10;2357054;75;50742;-78
2022/10/21 07:13:34;;;;;;;;;;;;;;;18.56;63.20;100542.47;2370452;75;50752;-78
2022/10/21 07:16:36;;;;;;;;;;;;;;;18.59;63.16;100539.41;2362259;75;50089;-79
2022/10/21 07:19:37;;;;;;;;;;;;;;;18.59;63.14;100548.28;2336458;75;50573;-78
2022/10/21 07:22:39;;;;;;;;;;;;;;;18.58;63.20;100552.50;2370468;75;51561;-78
2022/10/21 07:25:41;;;;;;;;;;;;;;;18.57;63.24;100558.86;2370526;74;50611;-79
2022/10/21 07:28:46;;;;;;;;;;;;;;;18.57;63.20;100569.58;2362206;75;51732;-80
2022/10/21 07:31:45;;;;;;;;;;;;;;;18.57;63.21;100562.87;2370688;75;22462;-78
2022/10/21 07:34:47;;;;;;;;;;;;;;;18.58;63.14;100556.52;2329427;75;50676;-78
2022/10/21 07:37:48;;;;;;;;;;;;;;;18.57;63.12;100567.72;2293704;77;51664;-80
2022/10/21 07:40:50;;;;;;;;;;;;;;;18.58;63.14;100560.02;2274322;77;52400;-78
2022/10/21 07:43:52;;;;;;;;;;;;;;;18.57;63.18;100554.33;2301939;77;50539;-77
2022/10/21 07:46:53;;;;;;;;;;;;;;;18.58;63.15;100551.16;2316470;76;51493;-78
2022/10/21 07:49:56;;;;;;;;;;;;;;;18.57;63.18;100557.52;2335907;76;50785;-78
2022/10/21 07:52:58;;;;;;;;;;;;;;;18.57;63.12;100549.48;2330039;76;50333;-78
2022/10/21 07:56:03;;;;;;;;;;;;;;;18.56;63.17;100552.67;2335489;76;50643;-79
2022/10/21 07:59:05;;;;;;;;;;;;;;;18.58;63.11;100552.50;2335776;76;50695;-79
2022/10/21 08:02:07;;;;;;;;;;;;;;;18.56;63.16;100546.49;2318597;76;50774;-78
2022/10/21 08:05:08;;;;;;;;;;;;;;;18.57;63.10;100539.59;2278256;76;53714;-78
2022/10/21 08:08:10;;;;;;;;;;;;;;;18.58;63.08;100531.06;2335876;76;51483;-78
2022/10/21 08:11:11;;;;;;;;;;;;;;;18.57;63.09;100549.48;2335644;76;51468;-77
2022/10/21 08:14:13;;;;;;;;;;;;;;;18.59;63.01;100551.47;2335134;76;50376;-77
2022/10/21 08:17:14;;;;;;;;;;;;;;;18.59;63.01;100548.80;2303257;76;51130;-78
2022/10/21 08:20:16;;;;;;;;;;;;;;;18.57;63.05;100551.64;2308909;76;50696;-78
2022/10/21 08:23:18;;;;;;;;;;;;;;;18.57;63.01;100548.14;2334160;76;50384;-78
2022/10/21 08:26:20;;;;;;;;;;;;;;;18.58;63.03;100552.50;2295977;76;51548;-78
2022/10/21 08:29:21;;;;;;;;;;;;;;;18.57;63.00;100544.95;2237261;77;52734;-77
2022/10/21 08:32:23;;;;;;;;;;;;;;;18.59;62.97;100542.92;2262076;77;50411;-77
2022/10/21 08:35:25;;;;;;;;;;;;;;;18.60;62.93;100539.24;2307626;76;50350;-77
2022/10/21 08:38:26;;;;;;;;;;;;;;;18.60;62.93;100529.01;2273669;77;51491;-78
2022/10/21 08:41:30;;;;;;;;;;;;;;;18.61;62.92;100528.01;2258340;76;50188;-78
2022/10/21 08:44:35;;;;;;;;;;;;;;;18.60;62.98;100518.28;2335485;76;49979;-79
2022/10/21 08:47:44;;;;;;;;;;;;;;;18.58;62.97;100520.34;2334378;76;50850;-77
2022/10/21 08:50:46;;;;;;;;;;;;;;;18.59;62.95;100519.31;2334062;76;22157;-77
2022/10/21 08:53:48;;;;;;;;;;;;;;;18.60;63.14;100519.14;2300068;76;50164;-77
2022/10/21 08:56:49;;;;;;;;;;;;;;;18.61;63.23;100513.27;2303560;76;51574;-78
2022/10/21 08:59:51;;;;;;;;;;;;;;;18.61;63.11;100526.67;2334177;76;50695;-77
2022/10/21 09:02:54;;;;;;;;;;;;;;;18.64;63.76;100523.09;2334266;76;51291;-77
2022/10/21 09:05:57;;;;;;;;;;;;;;;18.66;63.95;100524.27;2301901;76;52241;-77
2022/10/21 09:09:06;;;;;;;;;;;;;;;18.62;63.75;100506.88;2306586;77;51546;-77
2022/10/21 09:12:10;;;;;;;;;;;;;;;18.61;63.80;100510.59;2335795;76;50774;-77
2022/10/21 09:15:16;;;;;;;;;;;;;;;18.68;64.00;100496.77;2329321;76;50412;-77
2022/10/21 09:18:19;;;;;;;;;;;;;;;18.61;63.47;100495.85;2261110;77;52703;-77
2022/10/21 09:21:28;;;;;;;;;;;;;;;18.59;63.44;100496.54;2294151;77;51536;-77
2022/10/21 09:24:32;;;;;;;;;;;;;;;18.58;63.32;100485.00;2294092;77;51550;-77
2022/10/21 09:27:33;;;;;;;;;;;;;;;18.59;63.10;100487.16;2294255;77;51399;-77
2022/10/21 09:30:35;;;;;;;;;;;;;;;18.60;63.01;100479.43;2294162;77;50423;-77
2022/10/21 09:33:37;;;;;;;;;;;;;;;18.60;62.91;100482.11;2302116;76;50371;-77
2022/10/21 09:36:46;;;;;;;;;;;;;;;18.58;62.88;100485.00;2337362;75;51484;-77
2022/10/21 09:39:42;;;;;;;;;;;;;;;18.57;62.93;100481.97;2301968;77;22443;-77
2022/10/21 09:42:44;;;;;;;;;;;;;;;18.66;63.10;100485.41;2318408;76;49630;-76
2022/10/21 09:45:45;;;;;;;;;;;;;;;18.69;62.95;100491.20;2326342;76;51492;-76
2022/10/21 09:48:48;;;;;;;;;;;;;;;18.72;62.79;100487.31;2326753;76;50269;-76
2022/10/21 09:51:50;;;;;;;;;;;;;;;18.73;62.78;100486.32;2326690;76;51467;-76
2022/10/21 09:54:51;;;;;;;;;;;;;;;18.64;62.40;100491.45;2292478;76;50860;-77
2022/10/21 09:57:54;;;;;;;;;;;;;;;18.61;62.87;100495.34;2326763;76;51468;-77
2022/10/21 10:00:55;;;;;;;;;;;;;;;18.61;63.17;100489.98;2326719;76;50781;-76
2022/10/21 10:03:57;;;;;;;;;;;;;;;18.62;63.45;100495.64;2335526;75;51556;-76
2022/10/21 10:07:02;;;;;;;;;;;;;;;18.61;63.21;100490.48;2302039;75;51775;-76
2022/10/21 10:10:06;;;;;;;;;;;;;;;18.63;63.72;100495.16;2310140;77;50437;-77
2022/10/21 10:13:09;;;;;;;;;;;;;;;18.63;63.71;100485.27;2309523;77;50465;-76
2022/10/21 10:16:21;;;;;;;;;;;;;;;18.62;63.58;100480.08;2309828;77;51494;-76
2022/10/21 10:19:23;;;;;;;;;;;;;;;18.64;64.00;100470.84;2310221;77;22350;-76
2022/10/21 10:22:26;;;;;;;;;;;;;;;18.64;63.84;100461.97;2309979;77;51546;-77
2022/10/21 10:25:29;;;;;;;;;;;;;;;18.65;63.66;100456.92;2302778;77;50387;-77
2022/10/21 10:28:31;;;;;;;;;;;;;;;18.60;63.54;100453.48;2340699;75;51651;-76
2022/10/21 10:31:33;;;;;;;;;;;;;;;18.58;64.03;100454.18;2350203;75;51524;-76
2022/10/21 10:34:38;;;;;;;;;;;;;;;18.55;63.63;100451.88;2341594;75;51718;-77
2022/10/21 10:37:39;;;;;;;;;;;;;;;18.55;63.70;100451.02;2337583;75;51590;-77
2022/10/21 10:40:42;;;;;;;;;;;;;;;18.56;63.55;100454.05;2339420;75;50638;-77
2022/10/21 10:43:44;;;;;;;;;;;;;;;18.58;63.97;100448.00;2276489;75;52586;-77
2022/10/21 10:46:46;;;;;;;;;;;;;;;18.60;63.60;100439.23;2349796;75;50759;-77
2022/10/21 10:49:47;;;;;;;;;;;;;;;18.59;63.58;100432.23;2344394;75;51513;-77
2022/10/21 10:52:49;;;;;;;;;;;;;;;18.61;63.66;100439.58;2309970;77;50885;-76
2022/10/21 10:55:52;;;;;;;;;;;;;;;18.66;63.79;100428.61;2262960;77;51297;-76
2022/10/21 10:58:55;;;;;;;;;;;;;;;18.60;63.91;100428.03;2309969;76;50454;-77
2022/10/21 11:02:11;;;;;;;;;;;;;;;18.57;63.68;100412.30;2308197;77;50614;-77
2022/10/21 11:05:30;;;;;;;;;;;;;;;18.57;63.65;100414.16;2322687;75;49964;-75
2022/10/21 11:08:32;;;;;;;;;;;;;;;18.59;63.78;100414.81;2305471;77;52557;-76
2022/10/21 11:11:36;;;;;;;;;;;;;;;18.57;63.89;100412.30;2275060;77;50774;-76
2022/10/21 11:14:37;;;;;;;;;;;;;;;18.59;64.03;100405.43;2335461;75;50688;-76
2022/10/21 11:17:40;;;;;;;;;;;;;;;18.57;63.89;100405.61;2349805;75;51520;-76
2022/10/21 11:20:43;;;;;;;;;;;;;;;18.56;64.02;100404.48;2349869;75;50252;-76
2022/10/21 11:23:49;;;;;;;;;;;;;;;18.58;64.04;100415.33;2349322;75;50516;-76
2022/10/21 11:26:58;;;;;;;;;;;;;;;18.55;64.20;100402.80;2349844;75;50804;-76
2022/10/21 11:30:01;;;;;;;;;;;;;;;18.55;64.12;100404.13;2345122;75;50336;-76
2022/10/21 11:33:11;;;;;;;;;;;;;;;18.56;63.98;100404.48;2277067;75;51008;-76
2022/10/21 11:36:14;;;;;;;;;;;;;;;18.56;64.07;100401.28;2326087;75;50580;-77
2022/10/21 11:39:30;;;;;;;;;;;;;;;18.57;64.09;100401.59;2306219;77;50804;-76
2022/10/21 11:42:32;;;;;;;;;;;;;;;18.69;63.97;100403.28;2309889;76;55515;-76
2022/10/21 11:45:42;;;;;;;;;;;;;;;18.71;63.92;100397.22;2276027;77;49660;-76
2022/10/21 11:48:48;;;;;;;;;;;;;;;18.68;63.98;100392.25;2348426;75;51656;-75
2022/10/21 11:51:58;;;;;;;;;;;;;;;18.64;64.01;100391.78;2327783;75;50398;-76
2022/10/21 11:55:18;;;;;;;;;;;;;;;18.59;64.06;100393.37;2315078;76;51717;-76
2022/10/21 11:58:21;;;;;;;;;;;;;;;18.58;64.22;100392.55;2276177;77;49616;-75
2022/10/21 12:01:30;;;;;;;;;;;;;;;18.59;64.17;100392.86;2309714;75;50563;-76
2022/10/21 12:04:39;;;;;;;;;;;;;;;18.57;64.29;100402.10;2309685;77;50757;-76
2022/10/21 12:07:55;;;;;;;;;;;;;;;18.60;64.29;100401.72;2310187;77;50422;-76
2022/10/21 12:11:01;;;;;;;;;;;;;;;18.63;64.40;100404.05;2277082;77;51006;-76
2022/10/21 12:14:07;;;;;;;;;;;;;;;18.63;64.62;100400.85;2311944;75;50833;-75
2022/10/21 12:17:13;;;;;;;;;;;;;;;18.65;64.33;100396.63;2329445;75;51756;-76
2022/10/21 12:20:21;;;;;;;;;;;;;;;18.62;64.29;100392.98;2349284;75;50245;-76
2022/10/21 12:23:27;;;;;;;;;;;;;;;18.63;64.36;100390.13;2318849;75;50130;-75
2022/10/21 12:26:34;;;;;;;;;;;;;;;18.66;64.31;100388.92;2351370;75;50645;-75
2022/10/21 12:29:49;;;;;;;;;;;;;;;18.67;64.41;100387.89;2356796;75;51537;-75
2022/10/21 12:33:09;;;;;;;;;;;;;;;18.67;64.59;100390.57;2329838;75;50594;-76
2022/10/21 12:36:12;;;;;;;;;;;;;;;18.67;64.78;100389.23;2276278;77;52715;-75
2022/10/21 12:39:19;;;;;;;;;;;;;;;18.70;64.51;100375.45;2271210;77;52022;-76
2022/10/21 12:42:25;;;;;;;;;;;;;;;18.72;64.53;100381.45;2300412;77;50266;-77
2022/10/21 12:45:34;;;;;;;;;;;;;;;18.75;64.54;100378.41;2305155;77;51515;-76
2022/10/21 12:48:39;;;;;;;;;;;;;;;18.74;64.52;100387.45;2272709;76;51372;-76
2022/10/21 12:51:43;;;;;;;;;;;;;;;18.68;64.68;100390.91;2336662;75;51497;-77
2022/10/21 12:55:00;;;;;;;;;;;;;;;18.63;64.86;100387.97;2291372;76;50769;-77
2022/10/21 12:58:02;;;;;;;;;;;;;;;18.63;65.07;100389.31;2309757;76;50123;-77
2022/10/21 13:01:05;;;;;;;;;;;;;;;18.61;65.00;100388.66;2284343;75;51030;-77
2022/10/21 13:04:25;;;;;;;;;;;;;;;18.62;65.13;100380.93;2314852;75;50436;-77
2022/10/21 13:07:27;;;;;;;;;;;;;;;18.61;65.31;100381.96;2350075;75;50444;-77
2022/10/21 13:10:29;;;;;;;;;;;;;;;18.63;65.25;100377.25;2350032;75;51519;-76
2022/10/21 13:13:40;;;;;;;;;;;;;;;18.62;65.28;100379.59;2314988;75;50119;-76
2022/10/21 13:16:41;;;;;;;;;;;;;;;18.60;65.42;100369.56;2350100;75;51570;-76
2022/10/21 13:19:43;;;;;;;;;;;;;;;18.61;65.41;100367.23;2350110;75;51478;-77
2022/10/21 13:22:45;;;;;;;;;;;;;;;18.60;65.41;100365.55;2314567;75;51462;-77
2022/10/21 13:25:47;;;;;;;;;;;;;;;18.59;65.45;100363.90;2310034;77;51595;-77
2022/10/21 13:28:55;;;;;;;;;;;;;;;18.59;65.47;100364.72;2276687;77;51503;-77
2022/10/21 13:32:13;;;;;;;;;;;;;;;18.59;65.51;100363.38;2310112;77;50394;-77
2022/10/21 13:35:20;;;;;;;;;;;;;;;18.61;65.56;100370.73;2309898;77;51527;-77
2022/10/21 13:38:22;;;;;;;;;;;;;;;18.61;65.71;100364.55;2276562;77;50143;-77
2022/10/21 13:41:27;;;;;;;;;;;;;;;18.61;65.68;100366.70;2276714;77;51050;-77
2022/10/21 13:44:31;;;;;;;;;;;;;;;18.61;65.65;100365.88;2309984;77;50458;-76
2022/10/21 13:47:33;;;;;;;;;;;;;;;18.58;65.56;100364.41;2306761;77;50466;-76
2022/10/21 13:50:37;;;;;;;;;;;;;;;18.57;65.55;100363.25;2282781;75;51535;-77
2022/10/21 13:53:42;;;;;;;;;;;;;;;18.57;65.57;100365.93;2292370;77;49648;-77
2022/10/21 13:56:43;;;;;;;;;;;;;;;18.58;65.51;100371.11;2310642;77;24593;-77
2022/10/21 13:59:45;;;;;;;;;;;;;;;18.59;65.55;100363.90;2277066;77;50363;-78
2022/10/21 14:02:47;;;;;;;;;;;;;;;18.61;65.59;100365.88;2276982;77;50568;-77
2022/10/21 14:05:50;;;;;;;;;;;;;;;18.64;65.45;100369.52;2276801;77;49626;-76
2022/10/21 14:08:52;;;;;;;;;;;;;;;18.68;65.12;100368.95;2310334;77;50434;-76
2022/10/21 14:11:58;;;;;;;;;;;;;;;18.69;65.08;100357.20;2310496;77;50162;-76
2022/10/21 14:15:05;;;;;;;;;;;;;;;18.67;65.42;100363.25;2310291;77;51523;-76
2022/10/21 14:18:06;;;;;;;;;;;;;;;18.64;65.51;100366.84;2277053;77;51704;-76
2022/10/21 14:21:10;;;;;;;;;;;;;;;18.61;65.66;100369.91;2321147;75;50109;-76
2022/10/21 14:24:25;;;;;;;;;;;;;;;18.58;65.54;100367.61;2326527;75;50424;-76
2022/10/21 14:27:27;;;;;;;;;;;;;;;18.57;65.48;100360.57;2350207;75;50394;-76
2022/10/21 14:30:30;;;;;;;;;;;;;;;18.58;65.52;100358.23;2314209;75;51159;-74
2022/10/21 14:33:32;;;;;;;;;;;;;;;18.57;65.54;100361.39;2315804;75;50422;-77
2022/10/21 14:36:33;;;;;;;;;;;;;;;18.64;65.21;100356.94;2350481;75;50704;-79
2022/10/21 14:39:35;;;;;;;;;;;;;;;18.69;65.12;100360.39;2350512;75;50724;-74
2022/10/21 14:42:36;;;;;;;;;;;;;;;18.72;64.91;100357.33;2290019;75;49484;-76
2022/10/21 14:45:40;;;;;;;;;;;;;;;18.75;64.83;100351.61;2314891;75;50673;-74
2022/10/21 14:48:45;;;;;;;;;;;;;;;18.75;64.88;100348.93;2349618;75;50749;-78
2022/10/21 14:51:47;;;;;;;;;;;;;;;18.67;65.25;100344.50;2339082;75;50678;-77
2022/10/21 14:54:49;;;;;;;;;;;;;;;18.63;65.23;100341.89;2318148;76;50096;-77
2022/10/21 14:57:56;;;;;;;;;;;;;;;18.61;65.51;100336.41;2310458;77;50288;-76
2022/10/21 15:00:56;;;;;;;;;;;;;;;18.60;65.28;100338.75;2308858;77;22427;-80
2022/10/21 15:03:58;;;;;;;;;;;;;;;18.58;65.44;100335.45;2319420;75;50364;-75
2022/10/21 15:07:04;;;;;;;;;;;;;;;18.67;65.24;100332.95;2328859;75;50862;-76
2022/10/21 15:10:06;;;;;;;;;;;;;;;18.72;64.96;100331.35;2356662;75;22351;-76
2022/10/21 15:13:19;;;;;;;;;;;;;;;18.74;64.88;100329.83;2357961;75;50341;-77
2022/10/21 15:16:21;;;;;;;;;;;;;;;18.74;64.87;100319.11;2357918;75;51562;-76
2022/10/21 15:19:24;;;;;;;;;;;;;;;18.73;64.95;100320.14;2325259;75;49260;-75
2022/10/21 15:22:27;;;;;;;;;;;;;;;18.72;64.89;100315.78;2358210;75;50290;-77
2022/10/21 15:25:29;;;;;;;;;;;;;;;18.65;65.10;100320.25;2357813;75;50501;-75
2022/10/21 15:28:31;;;;;;;;;;;;;;;18.61;65.38;100314.45;2358244;75;50270;-78
2022/10/21 15:31:33;;;;;;;;;;;;;;;18.57;65.24;100317.18;2357670;75;52571;-76
2022/10/21 15:34:35;;;;;;;;;;;;;;;18.62;65.26;100313.94;2339069;75;52397;-76
2022/10/21 15:37:37;;;;;;;;;;;;;;;18.70;64.99;100316.00;2332058;75;50777;-76
2022/10/21 15:40:38;;;;;;;;;;;;;;;18.76;64.83;100318.45;2349688;75;51475;-73